sensor_id;sensor_type;location;lat;lon;timestamp;temperature;humidity
2955;DHT22;1487;51.470;6.938;2022-12-18T00:00:43;-6.10;99.90
2955;DHT22;1487;51.470;6.938;2022-12-18T00:03:12;-6.00;99.90
2955;DHT22;1487;51.470;6.938;2022-12-18T00:05:47;-6.00;99.90
2955;DHT22;1487;51.470;6.938;2022-12-18T00:08:14;-6.00;99.90
2955;DHT22;1487;51.470;6.938;2022-12-18T00:10:41;-6.10;99.90
2955;DHT22;1487;51.470;6.938;2022-12-18T00:13:08;-6.10;99.90
2955;DHT22;1487;51.470;6.938;2022-12-18T00:15:35;-6.10;99.90
2955;DHT22;1487;51.470;6.938;2022-12-18T00:18:03;-6.10;99.90
2955;DHT22;1487;51.470;6.938;2022-12-18T00:20:30;-6.20;99.90
2955;DHT22;1487;51.470;6.938;2022-12-18T00:22:58;-6.20;99.90
2955;DHT22;1487;51.470;6.938;2022-12-18T00:25:25;-6.30;99.90
2955;DHT22;1487;51.470;6.938;2022-12-18T00:27:52;-6.40;99.90
2955;DHT22;1487;51.470;6.938;2022-12-18T00:30:18;-6.50;99.90
2955;DHT22;1487;51.470;6.938;2022-12-18T00:32:45;-6.50;99.90
2955;DHT22;1487;51.470;6.938;2022-12-18T00:35:12;-6.60;99.90
2955;DHT22;1487;51.470;6.938;2022-12-18T00:37:39;-6.50;99.90
2955;DHT22;1487;51.470;6.938;2022-12-18T00:40:09;-6.60;99.90
2955;DHT22;1487;51.470;6.938;2022-12-18T00:42:36;-6.50;99.90
2955;DHT22;1487;51.470;6.938;2022-12-18T00:45:20;-6.50;99.90
2955;DHT22;1487;51.470;6.938;2022-12-18T00:47:47;-6.50;99.90
2955;DHT22;1487;51.470;6.938;2022-12-18T00:50:14;-6.50;99.90
2955;DHT22;1487;51.470;6.938;2022-12-18T00:52:41;-6.50;99.90
2955;DHT22;1487;51.470;6.938;2022-12-18T00:55:09;-6.60;99.90
2955;DHT22;1487;51.470;6.938;2022-12-18T00:57:36;-6.70;99.90
2955;DHT22;1487;51.470;6.938;2022-12-18T01:00:04;-6.70;99.90
2955;DHT22;1487;51.470;6.938;2022-12-18T01:02:32;-6.70;99.90
2955;DHT22;1487;51.470;6.938;2022-12-18T01:04:58;-6.80;99.90
2955;DHT22;1487;51.470;6.938;2022-12-18T01:07:25;-6.90;99.90
2955;DHT22;1487;51.470;6.938;2022-12-18T01:09:52;-6.90;99.90
2955;DHT22;1487;51.470;6.938;2022-12-18T01:12:20;-6.90;99.90
2955;DHT22;1487;51.470;6.938;2022-12-18T01:14:47;-6.90;99.90
2955;DHT22;1487;51.470;6.938;2022-12-18T01:17:14;-6.90;99.90
2955;DHT22;1487;51.470;6.938;2022-12-18T01:19:41;-6.90;99.90
2955;DHT22;1487;51.470;6.938;2022-12-18T01:22:08;-6.90;99.90
2955;DHT22;1487;51.470;6.938;2022-12-18T01:24:35;-6.90;99.90
2955;DHT22;1487;51.470;6.938;2022-12-18T01:27:01;-7.00;99.90
2955;DHT22;1487;51.470;6.938;2022-12-18T01:29:30;-7.00;99.90
2955;DHT22;1487;51.470;6.938;2022-12-18T01:31:57;-7.00;99.90
2955;DHT22;1487;51.470;6.938;2022-12-18T01:34:24;-6.90;99.90
2955;DHT22;1487;51.470;6.938;2022-12-18T01:36:51;-6.90;99.90
2955;DHT22;1487;51.470;6.938;2022-12-18T01:39:18;-6.80;99.90
2955;DHT22;1487;51.470;6.938;2022-12-18T01:41:46;-6.90;99.90
2955;DHT22;1487;51.470;6.938;2022-12-18T01:44:53;-6.90;99.90
2955;DHT22;1487;51.470;6.938;2022-12-18T01:47:23;-6.90;99.90
2955;DHT22;1487;51.470;6.938;2022-12-18T01:49:50;-7.00;99.90
2955;DHT22;1487;51.470;6.938;2022-12-18T01:52:17;-7.00;99.90
2955;DHT22;1487;51.470;6.938;2022-12-18T01:54:45;-7.00;99.90
2955;DHT22;1487;51.470;6.938;2022-12-18T01:57:13;-7.10;99.90
2955;DHT22;1487;51.470;6.938;2022-12-18T01:59:42;-7.10;99.90
2955;DHT22;1487;51.470;6.938;2022-12-18T02:02:11;-7.00;99.90
2955;DHT22;1487;51.470;6.938;2022-12-18T02:04:38;-7.10;99.90
2955;DHT22;1487;51.470;6.938;2022-12-18T02:07:09;-7.10;99.90
2955;DHT22;1487;51.470;6.938;2022-12-18T02:09:41;-7.10;99.90
2955;DHT22;1487;51.470;6.938;2022-12-18T02:12:14;-7.10;99.90
2955;DHT22;1487;51.470;6.938;2022-12-18T02:14:45;-7.20;99.90
2955;DHT22;1487;51.470;6.938;2022-12-18T02:17:18;-7.20;99.90
2955;DHT22;1487;51.470;6.938;2022-12-18T02:19:59;-7.10;99.90
2955;DHT22;1487;51.470;6.938;2022-12-18T02:22:35;-7.10;99.90
2955;DHT22;1487;51.470;6.938;2022-12-18T02:25:14;-7.10;99.90
2955;DHT22;1487;51.470;6.938;2022-12-18T02:27:45;-7.10;99.90
2955;DHT22;1487;51.470;6.938;2022-12-18T02:30:14;-7.20;99.90
2955;DHT22;1487;51.470;6.938;2022-12-18T02:32:44;-7.00;99.90
2955;DHT22;1487;51.470;6.938;2022-12-18T02:35:15;-6.80;99.90
2955;DHT22;1487;51.470;6.938;2022-12-18T02:37:43;-6.50;99.90
2955;DHT22;1487;51.470;6.938;2022-12-18T02:40:12;-6.30;99.90
2955;DHT22;1487;51.470;6.938;2022-12-18T02:42:40;-5.90;99.90
2955;DHT22;1487;51.470;6.938;2022-12-18T02:45:09;-5.50;99.90
2955;DHT22;1487;51.470;6.938;2022-12-18T02:47:39;-5.30;99.90
2955;DHT22;1487;51.470;6.938;2022-12-18T02:50:12;-5.20;99.90
2955;DHT22;1487;51.470;6.938;2022-12-18T02:52:48;-5.30;99.90
2955;DHT22;1487;51.470;6.938;2022-12-18T02:55:25;-5.60;99.90
2955;DHT22;1487;51.470;6.938;2022-12-18T02:57:55;-5.80;99.90
2955;DHT22;1487;51.470;6.938;2022-12-18T03:00:28;-6.00;99.90
2955;DHT22;1487;51.470;6.938;2022-12-18T03:02:59;-6.10;99.90
2955;DHT22;1487;51.470;6.938;2022-12-18T03:05:33;-6.20;99.90
2955;DHT22;1487;51.470;6.938;2022-12-18T03:08:05;-6.30;99.90
2955;DHT22;1487;51.470;6.938;2022-12-18T03:10:38;-6.50;99.90
2955;DHT22;1487;51.470;6.938;2022-12-18T03:13:09;-6.60;99.90
2955;DHT22;1487;51.470;6.938;2022-12-18T03:15:43;-6.70;99.90
2955;DHT22;1487;51.470;6.938;2022-12-18T03:18:15;-6.80;99.90
2955;DHT22;1487;51.470;6.938;2022-12-18T03:20:44;-6.80;99.90
2955;DHT22;1487;51.470;6.938;2022-12-18T03:23:15;-6.80;99.90
2955;DHT22;1487;51.470;6.938;2022-12-18T03:25:44;-6.90;99.90
2955;DHT22;1487;51.470;6.938;2022-12-18T03:28:15;-6.90;99.90
2955;DHT22;1487;51.470;6.938;2022-12-18T03:30:46;-7.00;99.90
2955;DHT22;1487;51.470;6.938;2022-12-18T03:33:18;-7.00;99.90
2955;DHT22;1487;51.470;6.938;2022-12-18T03:35:46;-7.10;99.90
2955;DHT22;1487;51.470;6.938;2022-12-18T03:38:13;-7.10;99.90
2955;DHT22;1487;51.470;6.938;2022-12-18T03:40:52;-7.20;99.90
2955;DHT22;1487;51.470;6.938;2022-12-18T03:43:29;-7.20;99.90
2955;DHT22;1487;51.470;6.938;2022-12-18T03:46:02;-7.10;99.90
2955;DHT22;1487;51.470;6.938;2022-12-18T03:48:33;-7.10;99.90
2955;DHT22;1487;51.470;6.938;2022-12-18T03:51:07;-7.00;99.90
2955;DHT22;1487;51.470;6.938;2022-12-18T03:53:40;-6.90;99.90
2955;DHT22;1487;51.470;6.938;2022-12-18T03:56:09;-7.00;99.90
2955;DHT22;1487;51.470;6.938;2022-12-18T03:58:37;-7.00;99.90
2955;DHT22;1487;51.470;6.938;2022-12-18T04:01:07;-7.10;99.90
2955;DHT22;1487;51.470;6.938;2022-12-18T04:03:35;-7.10;99.90
2955;DHT22;1487;51.470;6.938;2022-12-18T04:06:03;-7.20;99.90
2955;DHT22;1487;51.470;6.938;2022-12-18T04:08:32;-7.20;99.90
2955;DHT22;1487;51.470;6.938;2022-12-18T04:11:00;-7.30;99.90
2955;DHT22;1487;51.470;6.938;2022-12-18T04:13:29;-7.30;99.90
2955;DHT22;1487;51.470;6.938;2022-12-18T04:15:56;-7.30;99.90
2955;DHT22;1487;51.470;6.938;2022-12-18T04:18:24;-7.40;99.90
2955;DHT22;1487;51.470;6.938;2022-12-18T04:20:51;-7.40;99.90
2955;DHT22;1487;51.470;6.938;2022-12-18T04:23:18;-7.40;99.90
2955;DHT22;1487;51.470;6.938;2022-12-18T04:25:46;-7.40;99.90
2955;DHT22;1487;51.470;6.938;2022-12-18T04:28:13;-7.40;99.90
2955;DHT22;1487;51.470;6.938;2022-12-18T04:30:40;-7.40;99.90
2955;DHT22;1487;51.470;6.938;2022-12-18T04:33:09;-7.30;99.90
2955;DHT22;1487;51.470;6.938;2022-12-18T04:35:37;-7.30;99.90
2955;DHT22;1487;51.470;6.938;2022-12-18T04:38:05;-7.30;99.90
2955;DHT22;1487;51.470;6.938;2022-12-18T04:40:32;-7.20;99.90
2955;DHT22;1487;51.470;6.938;2022-12-18T04:42:59;-7.30;99.90
2955;DHT22;1487;51.470;6.938;2022-12-18T04:45:25;-7.20;99.90
2955;DHT22;1487;51.470;6.938;2022-12-18T04:47:52;-7.20;99.90
2955;DHT22;1487;51.470;6.938;2022-12-18T04:50:19;-7.20;99.90
2955;DHT22;1487;51.470;6.938;2022-12-18T04:52:47;-7.20;99.90
2955;DHT22;1487;51.470;6.938;2022-12-18T04:55:14;-7.20;99.90
2955;DHT22;1487;51.470;6.938;2022-12-18T04:57:41;-7.20;99.90
2955;DHT22;1487;51.470;6.938;2022-12-18T05:00:09;-7.20;99.90
2955;DHT22;1487;51.470;6.938;2022-12-18T05:02:36;-7.20;99.90
2955;DHT22;1487;51.470;6.938;2022-12-18T05:05:03;-7.20;99.90
2955;DHT22;1487;51.470;6.938;2022-12-18T05:07:30;-7.20;99.90
2955;DHT22;1487;51.470;6.938;2022-12-18T05:09:58;-7.20;99.90
2955;DHT22;1487;51.470;6.938;2022-12-18T05:12:25;-7.20;99.90
2955;DHT22;1487;51.470;6.938;2022-12-18T05:14:52;-7.10;99.90
2955;DHT22;1487;51.470;6.938;2022-12-18T05:17:19;-7.00;99.90
2955;DHT22;1487;51.470;6.938;2022-12-18T05:19:46;-7.00;99.90
2955;DHT22;1487;51.470;6.938;2022-12-18T05:22:13;-7.00;99.90
2955;DHT22;1487;51.470;6.938;2022-12-18T05:24:40;-7.10;99.90
2955;DHT22;1487;51.470;6.938;2022-12-18T05:27:08;-7.10;99.90
2955;DHT22;1487;51.470;6.938;2022-12-18T05:29:35;-7.00;99.90
2955;DHT22;1487;51.470;6.938;2022-12-18T05:32:01;-7.00;99.90
2955;DHT22;1487;51.470;6.938;2022-12-18T05:34:28;-7.00;99.90
2955;DHT22;1487;51.470;6.938;2022-12-18T05:36:55;-7.00;99.90
2955;DHT22;1487;51.470;6.938;2022-12-18T05:39:22;-7.00;99.90
2955;DHT22;1487;51.470;6.938;2022-12-18T05:41:49;-7.00;99.90
2955;DHT22;1487;51.470;6.938;2022-12-18T05:44:17;-7.00;99.90
2955;DHT22;1487;51.470;6.938;2022-12-18T05:46:44;-7.00;99.90
2955;DHT22;1487;51.470;6.938;2022-12-18T05:49:11;-6.90;99.90
2955;DHT22;1487;51.470;6.938;2022-12-18T05:51:37;-6.90;99.90
2955;DHT22;1487;51.470;6.938;2022-12-18T05:54:04;-7.00;99.90
2955;DHT22;1487;51.470;6.938;2022-12-18T05:56:31;-7.00;99.90
2955;DHT22;1487;51.470;6.938;2022-12-18T05:58:58;-7.10;99.90
2955;DHT22;1487;51.470;6.938;2022-12-18T06:01:26;-7.10;99.90
2955;DHT22;1487;51.470;6.938;2022-12-18T06:03:54;-7.10;99.90
2955;DHT22;1487;51.470;6.938;2022-12-18T06:06:23;-7.00;99.90
2955;DHT22;1487;51.470;6.938;2022-12-18T06:08:51;-6.90;99.90
2955;DHT22;1487;51.470;6.938;2022-12-18T06:11:20;-6.90;99.90
2955;DHT22;1487;51.470;6.938;2022-12-18T06:13:50;-6.90;99.90
2955;DHT22;1487;51.470;6.938;2022-12-18T06:16:17;-7.00;99.90
2955;DHT22;1487;51.470;6.938;2022-12-18T06:18:45;-7.00;99.90
2955;DHT22;1487;51.470;6.938;2022-12-18T06:21:12;-7.00;99.90
2955;DHT22;1487;51.470;6.938;2022-12-18T06:23:39;-7.00;99.90
2955;DHT22;1487;51.470;6.938;2022-12-18T06:26:08;-7.00;99.90
2955;DHT22;1487;51.470;6.938;2022-12-18T06:28:37;-7.00;99.90
2955;DHT22;1487;51.470;6.938;2022-12-18T06:31:04;-7.00;99.90
2955;DHT22;1487;51.470;6.938;2022-12-18T06:33:32;-7.00;99.90
2955;DHT22;1487;51.470;6.938;2022-12-18T06:36:02;-7.00;99.90
2955;DHT22;1487;51.470;6.938;2022-12-18T06:38:31;-7.00;99.90
2955;DHT22;1487;51.470;6.938;2022-12-18T06:40:58;-6.90;99.90
2955;DHT22;1487;51.470;6.938;2022-12-18T06:43:25;-7.00;99.90
2955;DHT22;1487;51.470;6.938;2022-12-18T06:45:58;-6.90;99.90
2955;DHT22;1487;51.470;6.938;2022-12-18T06:48:25;-6.90;99.90
2955;DHT22;1487;51.470;6.938;2022-12-18T06:50:52;-6.90;99.90
2955;DHT22;1487;51.470;6.938;2022-12-18T06:53:20;-6.90;99.90
2955;DHT22;1487;51.470;6.938;2022-12-18T06:55:47;-6.90;99.90
2955;DHT22;1487;51.470;6.938;2022-12-18T06:58:14;-7.00;99.90
2955;DHT22;1487;51.470;6.938;2022-12-18T07:00:42;-7.10;99.90
2955;DHT22;1487;51.470;6.938;2022-12-18T07:03:08;-7.10;99.90
2955;DHT22;1487;51.470;6.938;2022-12-18T07:05:39;-7.10;99.90
2955;DHT22;1487;51.470;6.938;2022-12-18T07:08:07;-7.10;99.90
2955;DHT22;1487;51.470;6.938;2022-12-18T07:10:40;-7.10;99.90
2955;DHT22;1487;51.470;6.938;2022-12-18T07:13:07;-7.10;99.90
2955;DHT22;1487;51.470;6.938;2022-12-18T07:15:34;-7.00;99.90
2955;DHT22;1487;51.470;6.938;2022-12-18T07:18:01;-7.10;99.90
2955;DHT22;1487;51.470;6.938;2022-12-18T07:20:29;-7.00;99.90
2955;DHT22;1487;51.470;6.938;2022-12-18T07:22:55;-7.00;99.90
2955;DHT22;1487;51.470;6.938;2022-12-18T07:25:23;-7.00;99.90
2955;DHT22;1487;51.470;6.938;2022-12-18T07:27:51;-7.00;99.90
2955;DHT22;1487;51.470;6.938;2022-12-18T07:30:18;-7.00;99.90
2955;DHT22;1487;51.470;6.938;2022-12-18T07:32:45;-7.00;99.90
2955;DHT22;1487;51.470;6.938;2022-12-18T07:35:11;-7.00;99.90
2955;DHT22;1487;51.470;6.938;2022-12-18T07:37:38;-6.90;99.90
2955;DHT22;1487;51.470;6.938;2022-12-18T07:40:06;-6.80;99.90
2955;DHT22;1487;51.470;6.938;2022-12-18T07:42:33;-6.80;99.90
2955;DHT22;1487;51.470;6.938;2022-12-18T07:45:03;-6.70;99.90
2955;DHT22;1487;51.470;6.938;2022-12-18T07:47:30;-6.60;99.90
2955;DHT22;1487;51.470;6.938;2022-12-18T07:52:36;-6.60;99.90
2955;DHT22;1487;51.470;6.938;2022-12-18T07:55:04;-6.50;99.90
2955;DHT22;1487;51.470;6.938;2022-12-18T07:57:31;-6.40;99.90
2955;DHT22;1487;51.470;6.938;2022-12-18T07:59:58;-6.40;99.90
2955;DHT22;1487;51.470;6.938;2022-12-18T08:02:26;-6.30;99.90
2955;DHT22;1487;51.470;6.938;2022-12-18T08:04:53;-6.30;99.90
2955;DHT22;1487;51.470;6.938;2022-12-18T08:07:19;-6.20;99.90
2955;DHT22;1487;51.470;6.938;2022-12-18T08:09:46;-6.00;99.90
2955;DHT22;1487;51.470;6.938;2022-12-18T08:12:13;-6.00;99.90
2955;DHT22;1487;51.470;6.938;2022-12-18T08:14:40;-5.80;99.90
2955;DHT22;1487;51.470;6.938;2022-12-18T08:17:07;-5.60;99.90
2955;DHT22;1487;51.470;6.938;2022-12-18T08:19:35;-5.60;99.90
2955;DHT22;1487;51.470;6.938;2022-12-18T08:22:02;-5.50;99.90
2955;DHT22;1487;51.470;6.938;2022-12-18T08:24:29;-5.20;99.90
2955;DHT22;1487;51.470;6.938;2022-12-18T08:26:56;-4.90;99.90
2955;DHT22;1487;51.470;6.938;2022-12-18T08:29:23;-4.60;99.90
2955;DHT22;1487;51.470;6.938;2022-12-18T08:31:50;-4.30;99.90
2955;DHT22;1487;51.470;6.938;2022-12-18T08:34:17;-4.10;99.90
2955;DHT22;1487;51.470;6.938;2022-12-18T08:36:45;-4.00;99.90
2955;DHT22;1487;51.470;6.938;2022-12-18T08:39:12;-3.90;99.90
2955;DHT22;1487;51.470;6.938;2022-12-18T08:41:39;-3.90;99.90
2955;DHT22;1487;51.470;6.938;2022-12-18T08:44:07;-3.80;99.90
2955;DHT22;1487;51.470;6.938;2022-12-18T08:46:51;-3.70;99.90
2955;DHT22;1487;51.470;6.938;2022-12-18T08:49:18;-3.40;99.90
2955;DHT22;1487;51.470;6.938;2022-12-18T08:51:46;-2.90;99.90
2955;DHT22;1487;51.470;6.938;2022-12-18T08:54:13;-2.30;99.90
2955;DHT22;1487;51.470;6.938;2022-12-18T08:56:40;-1.80;99.90
2955;DHT22;1487;51.470;6.938;2022-12-18T08:59:08;-1.30;99.90
2955;DHT22;1487;51.470;6.938;2022-12-18T09:01:35;-0.90;99.90
2955;DHT22;1487;51.470;6.938;2022-12-18T09:04:01;-0.50;99.90
2955;DHT22;1487;51.470;6.938;2022-12-18T09:06:28;-0.30;99.90
2955;DHT22;1487;51.470;6.938;2022-12-18T09:08:57;-0.10;99.90
2955;DHT22;1487;51.470;6.938;2022-12-18T09:11:25;0.20;99.90
2955;DHT22;1487;51.470;6.938;2022-12-18T09:13:53;0.40;99.90
2955;DHT22;1487;51.470;6.938;2022-12-18T09:16:20;0.60;99.90
2955;DHT22;1487;51.470;6.938;2022-12-18T09:18:48;0.70;99.90
2955;DHT22;1487;51.470;6.938;2022-12-18T09:21:16;0.80;99.90
2955;DHT22;1487;51.470;6.938;2022-12-18T09:23:43;1.00;99.90
2955;DHT22;1487;51.470;6.938;2022-12-18T09:26:12;1.20;99.90
2955;DHT22;1487;51.470;6.938;2022-12-18T09:28:39;1.30;99.90
2955;DHT22;1487;51.470;6.938;2022-12-18T09:31:07;1.50;99.90
2955;DHT22;1487;51.470;6.938;2022-12-18T09:33:34;1.70;99.90
2955;DHT22;1487;51.470;6.938;2022-12-18T09:36:05;2.40;99.90
2955;DHT22;1487;51.470;6.938;2022-12-18T09:38:33;2.90;99.90
2955;DHT22;1487;51.470;6.938;2022-12-18T09:41:03;3.30;99.90
2955;DHT22;1487;51.470;6.938;2022-12-18T09:43:37;3.30;99.90
2955;DHT22;1487;51.470;6.938;2022-12-18T09:46:10;3.20;99.90
2955;DHT22;1487;51.470;6.938;2022-12-18T09:48:41;3.00;99.90
2955;DHT22;1487;51.470;6.938;2022-12-18T09:51:14;2.60;99.90
2955;DHT22;1487;51.470;6.938;2022-12-18T09:53:45;2.40;99.90
2955;DHT22;1487;51.470;6.938;2022-12-18T09:56:17;2.30;99.90
2955;DHT22;1487;51.470;6.938;2022-12-18T09:58:49;2.30;99.90
2955;DHT22;1487;51.470;6.938;2022-12-18T10:01:21;2.30;99.90
2955;DHT22;1487;51.470;6.938;2022-12-18T10:03:49;2.30;99.90
2955;DHT22;1487;51.470;6.938;2022-12-18T10:06:21;2.20;99.90
2955;DHT22;1487;51.470;6.938;2022-12-18T10:08:56;2.10;99.90
2955;DHT22;1487;51.470;6.938;2022-12-18T10:11:34;2.20;99.90
2955;DHT22;1487;51.470;6.938;2022-12-18T10:14:13;2.10;99.90
2955;DHT22;1487;51.470;6.938;2022-12-18T10:16:51;2.20;99.90
2955;DHT22;1487;51.470;6.938;2022-12-18T10:19:35;2.30;99.90
2955;DHT22;1487;51.470;6.938;2022-12-18T10:22:11;2.30;99.90
2955;DHT22;1487;51.470;6.938;2022-12-18T10:24:44;2.30;99.90
2955;DHT22;1487;51.470;6.938;2022-12-18T10:27:15;2.30;99.90
2955;DHT22;1487;51.470;6.938;2022-12-18T10:29:44;2.40;99.90
2955;DHT22;1487;51.470;6.938;2022-12-18T10:32:15;2.50;99.90
2955;DHT22;1487;51.470;6.938;2022-12-18T10:34:46;2.50;99.90
2955;DHT22;1487;51.470;6.938;2022-12-18T10:37:16;2.70;99.90
2955;DHT22;1487;51.470;6.938;2022-12-18T10:39:44;2.80;99.90
2955;DHT22;1487;51.470;6.938;2022-12-18T10:42:16;3.00;99.90
2955;DHT22;1487;51.470;6.938;2022-12-18T10:44:44;3.10;99.90
2955;DHT22;1487;51.470;6.938;2022-12-18T10:47:14;3.30;99.90
2955;DHT22;1487;51.470;6.938;2022-12-18T10:49:47;3.30;99.90
2955;DHT22;1487;51.470;6.938;2022-12-18T10:52:18;3.40;99.90
2955;DHT22;1487;51.470;6.938;2022-12-18T10:54:49;3.50;99.90
2955;DHT22;1487;51.470;6.938;2022-12-18T10:57:28;3.50;99.90
2955;DHT22;1487;51.470;6.938;2022-12-18T10:59:59;3.60;99.90
2955;DHT22;1487;51.470;6.938;2022-12-18T11:02:28;3.50;99.90
2955;DHT22;1487;51.470;6.938;2022-12-18T11:05:00;3.40;99.90
2955;DHT22;1487;51.470;6.938;2022-12-18T11:07:47;3.40;99.90
2955;DHT22;1487;51.470;6.938;2022-12-18T11:10:16;3.40;99.90
2955;DHT22;1487;51.470;6.938;2022-12-18T11:12:44;3.20;99.90
2955;DHT22;1487;51.470;6.938;2022-12-18T11:15:16;3.20;99.90
2955;DHT22;1487;51.470;6.938;2022-12-18T11:17:48;3.10;99.90
2955;DHT22;1487;51.470;6.938;2022-12-18T11:20:30;3.10;99.90
2955;DHT22;1487;51.470;6.938;2022-12-18T11:22:59;3.10;99.90
2955;DHT22;1487;51.470;6.938;2022-12-18T11:25:29;3.20;99.90
2955;DHT22;1487;51.470;6.938;2022-12-18T11:27:59;3.20;99.90
2955;DHT22;1487;51.470;6.938;2022-12-18T11:30:29;3.20;99.90
2955;DHT22;1487;51.470;6.938;2022-12-18T11:33:01;3.30;99.90
2955;DHT22;1487;51.470;6.938;2022-12-18T11:35:40;3.30;99.90
2955;DHT22;1487;51.470;6.938;2022-12-18T11:38:18;3.40;99.90
2955;DHT22;1487;51.470;6.938;2022-12-18T11:40:53;3.40;99.90
2955;DHT22;1487;51.470;6.938;2022-12-18T11:43:27;3.40;99.90
2955;DHT22;1487;51.470;6.938;2022-12-18T11:46:01;3.40;99.90
2955;DHT22;1487;51.470;6.938;2022-12-18T11:48:33;3.40;99.90
2955;DHT22;1487;51.470;6.938;2022-12-18T11:51:04;3.40;99.90
2955;DHT22;1487;51.470;6.938;2022-12-18T11:53:35;3.40;99.90
2955;DHT22;1487;51.470;6.938;2022-12-18T11:56:17;3.30;99.90
2955;DHT22;1487;51.470;6.938;2022-12-18T11:58:48;3.30;99.90
2955;DHT22;1487;51.470;6.938;2022-12-18T12:01:29;3.20;99.90
2955;DHT22;1487;51.470;6.938;2022-12-18T12:04:20;3.20;99.90
2955;DHT22;1487;51.470;6.938;2022-12-18T12:06:55;3.20;99.90
2955;DHT22;1487;51.470;6.938;2022-12-18T12:09:31;3.20;99.90
2955;DHT22;1487;51.470;6.938;2022-12-18T12:12:15;3.10;99.90
2955;DHT22;1487;51.470;6.938;2022-12-18T12:14:54;3.10;99.90
2955;DHT22;1487;51.470;6.938;2022-12-18T12:17:35;3.10;99.90
2955;DHT22;1487;51.470;6.938;2022-12-18T12:20:10;3.00;99.90
2955;DHT22;1487;51.470;6.938;2022-12-18T12:22:44;3.00;99.90
2955;DHT22;1487;51.470;6.938;2022-12-18T12:25:25;2.90;99.90
2955;DHT22;1487;51.470;6.938;2022-12-18T12:28:13;3.00;99.90
2955;DHT22;1487;51.470;6.938;2022-12-18T12:30:50;3.00;99.90
2955;DHT22;1487;51.470;6.938;2022-12-18T12:33:33;3.00;99.90
2955;DHT22;1487;51.470;6.938;2022-12-18T12:36:08;3.00;99.90
2955;DHT22;1487;51.470;6.938;2022-12-18T12:38:42;3.00;99.90
2955;DHT22;1487;51.470;6.938;2022-12-18T12:41:13;3.00;99.90
2955;DHT22;1487;51.470;6.938;2022-12-18T12:43:58;3.10;99.90
2955;DHT22;1487;51.470;6.938;2022-12-18T12:46:26;3.10;99.90
2955;DHT22;1487;51.470;6.938;2022-12-18T12:48:57;3.10;99.90
2955;DHT22;1487;51.470;6.938;2022-12-18T12:51:27;3.00;99.90
2955;DHT22;1487;51.470;6.938;2022-12-18T12:53:56;3.00;99.90
2955;DHT22;1487;51.470;6.938;2022-12-18T12:56:39;3.00;99.90
2955;DHT22;1487;51.470;6.938;2022-12-18T12:59:14;3.00;99.90
2955;DHT22;1487;51.470;6.938;2022-12-18T13:01:49;3.00;99.90
2955;DHT22;1487;51.470;6.938;2022-12-18T13:04:27;3.00;99.90
2955;DHT22;1487;51.470;6.938;2022-12-18T13:07:01;2.90;99.90
2955;DHT22;1487;51.470;6.938;2022-12-18T13:09:31;2.90;99.90
2955;DHT22;1487;51.470;6.938;2022-12-18T13:12:05;2.90;99.90
2955;DHT22;1487;51.470;6.938;2022-12-18T13:15:12;2.80;99.90
2955;DHT22;1487;51.470;6.938;2022-12-18T13:17:39;2.70;99.90
2955;DHT22;1487;51.470;6.938;2022-12-18T13:20:10;2.60;99.90
2955;DHT22;1487;51.470;6.938;2022-12-18T13:22:39;2.60;99.90
2955;DHT22;1487;51.470;6.938;2022-12-18T13:25:28;2.60;99.90
2955;DHT22;1487;51.470;6.938;2022-12-18T13:28:11;2.50;99.90
2955;DHT22;1487;51.470;6.938;2022-12-18T13:30:47;2.40;99.90
2955;DHT22;1487;51.470;6.938;2022-12-18T13:33:47;2.40;99.90
2955;DHT22;1487;51.470;6.938;2022-12-18T13:36:28;2.30;99.90
2955;DHT22;1487;51.470;6.938;2022-12-18T13:39:32;2.20;99.90
2955;DHT22;1487;51.470;6.938;2022-12-18T13:45:45;2.30;99.90
2955;DHT22;1487;51.470;6.938;2022-12-18T13:48:20;2.30;99.90
2955;DHT22;1487;51.470;6.938;2022-12-18T13:50:55;2.30;99.90
2955;DHT22;1487;51.470;6.938;2022-12-18T13:53:27;2.30;99.90
2955;DHT22;1487;51.470;6.938;2022-12-18T13:55:54;2.20;99.90
2955;DHT22;1487;51.470;6.938;2022-12-18T13:58:21;2.30;99.90
2955;DHT22;1487;51.470;6.938;2022-12-18T14:00:48;2.20;99.90
2955;DHT22;1487;51.470;6.938;2022-12-18T14:03:19;2.20;99.90
2955;DHT22;1487;51.470;6.938;2022-12-18T14:05:46;2.20;99.90
2955;DHT22;1487;51.470;6.938;2022-12-18T14:08:18;2.20;99.90
2955;DHT22;1487;51.470;6.938;2022-12-18T14:10:48;2.20;99.90
2955;DHT22;1487;51.470;6.938;2022-12-18T14:13:21;2.30;99.90
2955;DHT22;1487;51.470;6.938;2022-12-18T14:15:50;2.20;99.90
2955;DHT22;1487;51.470;6.938;2022-12-18T14:18:21;2.30;99.90
2955;DHT22;1487;51.470;6.938;2022-12-18T14:20:51;2.30;99.90
2955;DHT22;1487;51.470;6.938;2022-12-18T14:23:27;2.30;99.90
2955;DHT22;1487;51.470;6.938;2022-12-18T14:25:56;2.30;99.90
2955;DHT22;1487;51.470;6.938;2022-12-18T14:28:23;2.30;99.90
2955;DHT22;1487;51.470;6.938;2022-12-18T14:30:52;2.30;99.90
2955;DHT22;1487;51.470;6.938;2022-12-18T14:33:20;2.40;99.90
2955;DHT22;1487;51.470;6.938;2022-12-18T14:35:56;2.40;99.90
2955;DHT22;1487;51.470;6.938;2022-12-18T14:38:29;2.40;99.90
2955;DHT22;1487;51.470;6.938;2022-12-18T14:41:02;2.30;99.90
2955;DHT22;1487;51.470;6.938;2022-12-18T14:43:32;2.30;99.90
2955;DHT22;1487;51.470;6.938;2022-12-18T14:46:00;2.30;99.90
2955;DHT22;1487;51.470;6.938;2022-12-18T14:48:38;2.30;99.90
2955;DHT22;1487;51.470;6.938;2022-12-18T14:51:12;2.30;99.90
2955;DHT22;1487;51.470;6.938;2022-12-18T14:53:43;2.30;99.90
2955;DHT22;1487;51.470;6.938;2022-12-18T14:56:17;2.20;99.90
2955;DHT22;1487;51.470;6.938;2022-12-18T14:58:49;2.20;99.90
2955;DHT22;1487;51.470;6.938;2022-12-18T15:01:21;2.20;99.90
2955;DHT22;1487;51.470;6.938;2022-12-18T15:03:50;2.20;99.90
2955;DHT22;1487;51.470;6.938;2022-12-18T15:06:21;2.20;99.90
2955;DHT22;1487;51.470;6.938;2022-12-18T15:08:51;2.10;99.90
2955;DHT22;1487;51.470;6.938;2022-12-18T15:11:33;2.10;99.90
2955;DHT22;1487;51.470;6.938;2022-12-18T15:14:22;2.10;99.90
2955;DHT22;1487;51.470;6.938;2022-12-18T15:16:51;2.10;99.90
2955;DHT22;1487;51.470;6.938;2022-12-18T15:19:20;2.10;99.90
2955;DHT22;1487;51.470;6.938;2022-12-18T15:21:48;2.10;99.90
2955;DHT22;1487;51.470;6.938;2022-12-18T15:24:18;2.10;99.90
2955;DHT22;1487;51.470;6.938;2022-12-18T15:26:48;2.10;99.90
2955;DHT22;1487;51.470;6.938;2022-12-18T15:29:19;2.10;99.90
2955;DHT22;1487;51.470;6.938;2022-12-18T15:31:58;2.00;99.90
2955;DHT22;1487;51.470;6.938;2022-12-18T15:34:25;2.00;99.90
2955;DHT22;1487;51.470;6.938;2022-12-18T15:36:52;2.00;99.90
2955;DHT22;1487;51.470;6.938;2022-12-18T15:39:19;2.00;99.90
2955;DHT22;1487;51.470;6.938;2022-12-18T15:41:47;2.00;99.90
2955;DHT22;1487;51.470;6.938;2022-12-18T15:44:32;2.00;99.90
2955;DHT22;1487;51.470;6.938;2022-12-18T15:46:59;1.90;99.90
2955;DHT22;1487;51.470;6.938;2022-12-18T15:49:25;1.90;99.90
2955;DHT22;1487;51.470;6.938;2022-12-18T15:51:54;1.90;99.90
2955;DHT22;1487;51.470;6.938;2022-12-18T15:54:23;1.80;99.90
2955;DHT22;1487;51.470;6.938;2022-12-18T15:57:07;1.80;99.90
2955;DHT22;1487;51.470;6.938;2022-12-18T15:59:53;1.70;99.90
2955;DHT22;1487;51.470;6.938;2022-12-18T16:02:22;1.70;99.90
2955;DHT22;1487;51.470;6.938;2022-12-18T16:04:50;1.70;99.90
2955;DHT22;1487;51.470;6.938;2022-12-18T16:07:17;1.70;99.90
2955;DHT22;1487;51.470;6.938;2022-12-18T16:09:48;1.70;99.90
2955;DHT22;1487;51.470;6.938;2022-12-18T16:12:19;1.70;99.90
2955;DHT22;1487;51.470;6.938;2022-12-18T16:14:47;1.70;99.90
2955;DHT22;1487;51.470;6.938;2022-12-18T16:17:15;1.60;99.90
2955;DHT22;1487;51.470;6.938;2022-12-18T16:19:42;1.60;99.90
2955;DHT22;1487;51.470;6.938;2022-12-18T16:22:18;1.60;99.90
2955;DHT22;1487;51.470;6.938;2022-12-18T16:24:45;1.50;99.90
2955;DHT22;1487;51.470;6.938;2022-12-18T16:27:12;1.50;99.90
2955;DHT22;1487;51.470;6.938;2022-12-18T16:29:40;1.50;99.90
2955;DHT22;1487;51.470;6.938;2022-12-18T16:32:12;1.50;99.90
2955;DHT22;1487;51.470;6.938;2022-12-18T16:34:39;1.50;99.90
2955;DHT22;1487;51.470;6.938;2022-12-18T16:37:08;1.40;99.90